createdAt,value
2018-07-14T00:00:29.755Z,42.7
2018-07-14T00:01:41.479Z,42.7
2018-07-14T00:02:40.296Z,42.6
2018-07-14T00:03:36.693Z,42.7
2018-07-14T00:04:39.663Z,42.7
2018-07-14T00:05:37.814Z,42.7
2018-07-14T00:06:41.376Z,42.7
2018-07-14T00:07:44.874Z,42.8
2018-07-14T00:08:43.524Z,42.8
2018-07-14T00:09:45.385Z,42.8
2018-07-14T00:10:59.698Z,42.8
2018-07-14T00:11:58.606Z,42.8
2018-07-14T00:12:51.578Z,42.8
2018-07-14T00:13:54.389Z,42.8
2018-07-14T00:14:57.307Z,42.8
2018-07-14T00:15:55.333Z,42.9
2018-07-14T00:16:57.127Z,42.9
2018-07-14T00:18:07.623Z,42.9
2018-07-14T00:19:05.768Z,42.9
2018-07-14T00:20:01.205Z,42.9
2018-07-14T00:21:01.926Z,42.9
2018-07-14T00:22:02.826Z,42.9
2018-07-14T00:23:00.694Z,42.9
2018-07-14T00:24:06.083Z,42.9
2018-07-14T00:25:01.474Z,42.9
2018-07-14T00:26:01.582Z,42.9
2018-07-14T00:26:59.371Z,42.9
2018-07-14T00:28:00.253Z,42.9
2018-07-14T00:29:00.775Z,42.9
2018-07-14T00:30:14.953Z,42.9
2018-07-14T00:31:22.045Z,42.9
2018-07-14T00:32:21.834Z,42.9
2018-07-14T00:33:25.566Z,43
2018-07-14T00:34:22.803Z,43
2018-07-14T00:35:27.291Z,43
2018-07-14T00:36:34.128Z,43
2018-07-14T00:37:36.843Z,43.1
2018-07-14T00:38:33.641Z,43.1
2018-07-14T00:39:38.088Z,43.1
2018-07-14T00:40:43.380Z,43.1
2018-07-14T00:41:39.279Z,43.1
2018-07-14T00:42:51.260Z,43.2
2018-07-14T00:43:54.264Z,43.2
2018-07-14T00:44:53.604Z,43.2
2018-07-14T00:45:55.933Z,43.2
2018-07-14T00:46:53.804Z,43.2
2018-07-14T00:47:50.144Z,43.2
2018-07-14T00:48:54.519Z,43.2
2018-07-14T00:49:57.385Z,43.2
2018-07-14T00:51:08.220Z,43.3
2018-07-14T00:52:06.365Z,43.3
2018-07-14T00:53:05.137Z,43.3
2018-07-14T00:54:12.164Z,43.3
2018-07-14T00:55:08.066Z,43.3
2018-07-14T00:56:12.521Z,43.3
2018-07-14T00:57:14.918Z,43.4
2018-07-14T00:58:17.700Z,43.4
2018-07-14T00:59:16.500Z,43.4
2018-07-14T01:00:11.516Z,43.4
2018-07-14T01:01:19.510Z,43.5
2018-07-14T01:02:18.979Z,43.5
2018-07-14T01:03:23.365Z,43.5
2018-07-14T01:04:28.488Z,43.5
2018-07-14T01:05:24.541Z,43.5
2018-07-14T01:06:37.305Z,43.5
2018-07-14T01:07:42.856Z,43.5
2018-07-14T01:08:39.203Z,43.5
2018-07-14T01:09:41.916Z,43.5
2018-07-14T01:10:43.367Z,43.6
2018-07-14T01:11:44.190Z,43.6
2018-07-14T01:12:44.455Z,43.6
2018-07-14T01:13:45.023Z,43.6
2018-07-14T01:14:44.522Z,43.6
2018-07-14T01:15:43.382Z,43.6
2018-07-14T01:16:47.886Z,43.6
2018-07-14T01:17:46.737Z,43.6
2018-07-14T01:18:45.501Z,43.6
2018-07-14T01:19:44.337Z,43.7
2018-07-14T01:20:58.466Z,43.7
2018-07-14T01:21:52.375Z,43.7
2018-07-14T01:23:01.947Z,43.7
2018-07-14T01:23:58.591Z,43.7
2018-07-14T01:24:56.374Z,43.7
2018-07-14T01:25:54.098Z,43.7
2018-07-14T01:26:54.941Z,43.7
2018-07-14T01:27:57.215Z,43.7
2018-07-14T01:28:54.752Z,43.8
2018-07-14T01:29:57.864Z,43.8
2018-07-14T01:30:58.459Z,43.8
2018-07-14T01:31:59.011Z,43.8
2018-07-14T01:32:58.982Z,43.8
2018-07-14T01:34:13.729Z,43.8
2018-07-14T01:35:13.483Z,43.9
2018-07-14T01:36:08.637Z,43.8
2018-07-14T01:37:06.394Z,43.8
2018-07-14T01:38:05.529Z,43.9
2018-07-14T01:39:09.831Z,43.9
2018-07-14T01:40:09.926Z,43.9
2018-07-14T01:41:06.506Z,43.9
2018-07-14T01:42:02.833Z,43.9
2018-07-14T01:43:01.709Z,43.9
2018-07-14T01:44:11.179Z,43.9
2018-07-14T01:45:08.839Z,43.9
2018-07-14T01:46:06.807Z,44
2018-07-14T01:47:14.344Z,43.9
2018-07-14T01:48:09.808Z,44
2018-07-14T01:49:09.426Z,44
2018-07-14T01:50:09.475Z,44
2018-07-14T01:51:13.627Z,44
2018-07-14T01:52:15.081Z,44
2018-07-14T01:53:18.872Z,44
2018-07-14T01:54:17.849Z,44
2018-07-14T01:55:13.377Z,44
2018-07-14T01:56:16.086Z,44
2018-07-14T01:57:15.028Z,44
2018-07-14T01:58:23.348Z,44.1
2018-07-14T01:59:24.793Z,44.1
2018-07-14T02:00:22.627Z,44.1
2018-07-14T02:01:36.988Z,44.1
2018-07-14T02:02:32.202Z,44.1
2018-07-14T02:03:35.434Z,44.1
2018-07-14T02:04:31.787Z,44.1
2018-07-14T02:05:29.727Z,44.1
2018-07-14T02:06:32.956Z,44.2
2018-07-14T02:07:34.082Z,44.2
2018-07-14T02:08:32.794Z,44.2
2018-07-14T02:09:31.535Z,44.2
2018-07-14T02:10:29.307Z,44.2
2018-07-14T02:11:27.459Z,44.1
2018-07-14T02:12:24.867Z,44.2
2018-07-14T02:13:27.603Z,44.2
2018-07-14T02:14:27.846Z,44.2
2018-07-14T02:15:29.408Z,44.2
2018-07-14T02:16:31.460Z,44.2
2018-07-14T02:17:43.353Z,44.2
2018-07-14T02:18:37.024Z,44.3
2018-07-14T02:19:36.791Z,44.3
2018-07-14T02:20:38.941Z,44.3
2018-07-14T02:21:36.927Z,44.3
2018-07-14T02:22:34.279Z,44.3
2018-07-14T02:23:35.596Z,44.3
2018-07-14T02:24:46.929Z,44.3
2018-07-14T02:25:46.007Z,44.4
2018-07-14T02:26:44.706Z,44.4
2018-07-14T02:27:39.093Z,44.4
2018-07-14T02:28:51.822Z,44.4
2018-07-14T02:29:51.684Z,44.4
2018-07-14T02:30:49.464Z,44.4
2018-07-14T02:31:54.806Z,44.4
2018-07-14T02:32:50.111Z,44.4
2018-07-14T02:33:54.459Z,44.4
2018-07-14T02:34:49.762Z,44.4
2018-07-14T02:35:49.823Z,44.4
2018-07-14T02:36:50.981Z,44.4
2018-07-14T02:37:47.466Z,44.4
2018-07-14T02:38:49.934Z,44.4
2018-07-14T02:39:46.197Z,44.4
2018-07-14T02:40:49.663Z,44.4
2018-07-14T02:42:02.755Z,44.4
2018-07-14T02:42:55.340Z,44.4
2018-07-14T02:43:53.261Z,44.4
2018-07-14T02:44:51.182Z,44.4
2018-07-14T02:45:51.843Z,44.4
2018-07-14T02:46:48.943Z,44.4
2018-07-14T02:47:50.114Z,44.5
2018-07-14T02:48:46.622Z,44.5
2018-07-14T02:49:44.290Z,44.5
2018-07-14T02:50:46.387Z,44.5
2018-07-14T02:51:44.161Z,44.4
2018-07-14T02:52:55.889Z,44.5
2018-07-14T02:53:51.481Z,44.5
2018-07-14T02:54:53.658Z,44.5
2018-07-14T02:55:51.010Z,44.5
2018-07-14T02:56:51.975Z,44.5
2018-07-14T02:58:05.025Z,44.5
2018-07-14T02:59:00.420Z,44.6
2018-07-14T03:00:00.673Z,44.5
2018-07-14T03:00:58.300Z,44.5
2018-07-14T03:02:01.164Z,44.6
2018-07-14T03:02:59.281Z,44.5
2018-07-14T03:03:59.075Z,44.6
2018-07-14T03:05:02.535Z,44.6
2018-07-14T03:06:02.619Z,44.6
2018-07-14T03:07:02.480Z,44.6
2018-07-14T03:08:01.375Z,44.6
2018-07-14T03:09:06.366Z,44.6
2018-07-14T03:10:19.992Z,44.6
2018-07-14T03:11:15.543Z,44.6
2018-07-14T03:12:17.583Z,44.6
2018-07-14T03:13:18.433Z,44.6
2018-07-14T03:14:22.426Z,44.6
2018-07-14T03:15:22.690Z,44.7
2018-07-14T03:16:24.407Z,44.7
2018-07-14T03:17:26.662Z,44.7
2018-07-14T03:18:24.967Z,44.7
2018-07-14T03:19:26.545Z,44.7
2018-07-14T03:20:25.053Z,44.7
2018-07-14T03:21:41.646Z,44.7
2018-07-14T03:22:38.591Z,44.7
2018-07-14T03:23:36.574Z,44.7
2018-07-14T03:24:34.362Z,44.8
2018-07-14T03:25:35.415Z,44.7
2018-07-14T03:26:30.915Z,44.8
2018-07-14T03:27:40.222Z,44.8
2018-07-14T03:28:35.626Z,44.7
2018-07-14T03:29:35.969Z,44.7
2018-07-14T03:30:36.532Z,44.7
2018-07-14T03:31:38.166Z,44.7
2018-07-14T03:32:37.924Z,44.7
2018-07-14T03:33:33.585Z,44.7
2018-07-14T03:34:31.989Z,44.8
2018-07-14T03:35:43.842Z,44.8
2018-07-14T03:36:38.955Z,44.8
2018-07-14T03:37:37.091Z,44.8
2018-07-14T03:38:40.446Z,44.8
2018-07-14T03:39:36.467Z,44.8
2018-07-14T03:40:39.390Z,44.8
2018-07-14T03:41:42.681Z,44.8
2018-07-14T03:42:42.621Z,44.8
2018-07-14T03:43:43.123Z,44.8
2018-07-14T03:44:39.481Z,44.8
2018-07-14T03:45:41.219Z,44.7
2018-07-14T03:46:52.718Z,44.8
2018-07-14T03:47:52.147Z,44.8
2018-07-14T03:48:50.500Z,44.8
2018-07-14T03:49:53.622Z,44.8
2018-07-14T03:51:02.924Z,44.8
2018-07-14T03:52:00.230Z,44.8
2018-07-14T03:53:01.577Z,44.9
2018-07-14T03:54:09.422Z,44.9
2018-07-14T03:55:09.980Z,44.8
2018-07-14T03:56:12.234Z,44.8
2018-07-14T03:57:24.997Z,44.9
2018-07-14T03:58:22.429Z,44.9
2018-07-14T03:59:25.202Z,44.9
2018-07-14T04:00:23.350Z,44.8
2018-07-14T04:01:27.668Z,44.9
2018-07-14T04:02:26.433Z,44.9
2018-07-14T04:03:34.874Z,44.9
2018-07-14T04:04:35.611Z,44.9
2018-07-14T04:05:33.170Z,44.9
2018-07-14T04:06:31.176Z,44.9
2018-07-14T04:07:32.550Z,44.9
2018-07-14T04:08:27.716Z,45
2018-07-14T04:09:34.167Z,45
2018-07-14T04:10:29.950Z,45
2018-07-14T04:11:32.089Z,44.9
2018-07-14T04:12:32.572Z,45
2018-07-14T04:13:46.469Z,45
2018-07-14T04:14:41.348Z,45
2018-07-14T04:15:39.148Z,45
2018-07-14T04:16:38.753Z,45
2018-07-14T04:17:35.431Z,45
2018-07-14T04:18:36.523Z,45
2018-07-14T04:19:31.853Z,45
2018-07-14T04:20:34.883Z,45
2018-07-14T04:21:36.711Z,45
2018-07-14T04:22:42.980Z,45.1
2018-07-14T04:23:39.766Z,45.1
2018-07-14T04:24:37.879Z,45.1
2018-07-14T04:25:39.612Z,45
2018-07-14T04:26:39.464Z,45.1
2018-07-14T04:27:40.373Z,45.1
2018-07-14T04:28:43.359Z,45.1
2018-07-14T04:29:39.444Z,45.1
2018-07-14T04:30:38.618Z,45.1
2018-07-14T04:31:50.365Z,45.1
2018-07-14T04:32:49.427Z,45.1
2018-07-14T04:33:47.207Z,45.1
2018-07-14T04:34:54.479Z,45.1
2018-07-14T04:35:54.346Z,45.1
2018-07-14T04:36:50.919Z,45.1
2018-07-14T04:37:48.862Z,45.2
2018-07-14T04:38:48.910Z,45
2018-07-14T04:39:52.000Z,45.1
2018-07-14T04:40:48.322Z,45.1
2018-07-14T04:41:59.916Z,45.1
2018-07-14T04:42:59.064Z,45
2018-07-14T04:43:57.747Z,45
2018-07-14T04:45:00.965Z,45
2018-07-14T04:45:59.559Z,45.1
2018-07-14T04:47:03.679Z,45
2018-07-14T04:48:01.915Z,45
2018-07-14T04:49:00.480Z,45.1
2018-07-14T04:49:59.307Z,45.2
2018-07-14T04:50:55.376Z,45.1
2018-07-14T04:52:08.861Z,45.1
2018-07-14T04:53:04.080Z,45.1
2018-07-14T04:54:08.594Z,45.1
2018-07-14T04:55:16.683Z,45.1
2018-07-14T04:56:17.497Z,45.1
2018-07-14T04:57:14.096Z,45.1
2018-07-14T04:58:15.456Z,45.1
2018-07-14T04:59:14.861Z,45.1
2018-07-14T05:00:12.761Z,45.1
2018-07-14T05:01:10.652Z,45.1
2018-07-14T05:02:09.405Z,45.1
2018-07-14T05:03:10.095Z,45
2018-07-14T05:04:11.676Z,45.1
2018-07-14T05:05:08.535Z,45.1
2018-07-14T05:06:20.388Z,45.1
2018-07-14T05:07:12.099Z,45.1
2018-07-14T05:08:13.258Z,45.1
2018-07-14T05:09:13.744Z,45.1
2018-07-14T05:10:11.887Z,45.1
2018-07-14T05:11:12.708Z,45.2
2018-07-14T05:12:11.457Z,45.1
2018-07-14T05:13:13.778Z,45.2
2018-07-14T05:14:09.396Z,45.2
2018-07-14T05:15:13.113Z,45.2
2018-07-14T05:16:12.426Z,45.2
2018-07-14T05:17:07.790Z,45.2
2018-07-14T05:18:08.350Z,45.1
2018-07-14T05:19:09.202Z,45.2
2018-07-14T05:20:05.407Z,45.2
2018-07-14T05:21:20.031Z,45.2
2018-07-14T05:22:17.456Z,45.2
2018-07-14T05:23:20.361Z,45.2
2018-07-14T05:24:17.528Z,45.2
2018-07-14T05:25:23.959Z,45.2
2018-07-14T05:26:27.746Z,45.2
2018-07-14T05:27:27.813Z,45.2
2018-07-14T05:28:33.049Z,45.2
2018-07-14T05:29:31.464Z,45.2
2018-07-14T05:30:32.609Z,45.2
2018-07-14T05:31:48.953Z,45.2
2018-07-14T05:32:40.797Z,45.2
2018-07-14T05:33:44.189Z,45.2
2018-07-14T05:34:41.997Z,45.3
2018-07-14T05:35:44.962Z,45.2
2018-07-14T05:36:46.262Z,45.3
2018-07-14T05:37:44.617Z,45.3
2018-07-14T05:38:45.365Z,45.3
2018-07-14T05:39:46.471Z,45.3
2018-07-14T05:40:47.573Z,45.3
2018-07-14T05:41:47.699Z,45.3
2018-07-14T05:42:47.716Z,45.3
2018-07-14T05:43:49.313Z,45.3
2018-07-14T05:45:00.939Z,45.3
2018-07-14T05:45:55.660Z,45.3
2018-07-14T05:46:55.829Z,45.3
2018-07-14T05:47:54.678Z,45.3
2018-07-14T05:48:52.575Z,45.4
2018-07-14T05:49:54.023Z,45.4
2018-07-14T05:50:52.667Z,45.4
2018-07-14T05:52:01.108Z,45.3
2018-07-14T05:53:01.812Z,45.3
2018-07-14T05:53:59.652Z,45.3
2018-07-14T05:55:12.342Z,45.3
2018-07-14T05:56:07.430Z,45.4
2018-07-14T05:57:06.173Z,45.4
2018-07-14T05:58:04.419Z,45.3
2018-07-14T05:59:08.136Z,45.3
2018-07-14T05:59:19.776Z,45.3
2018-07-14T06:00:20.002Z,45.3
2018-07-14T06:01:26.029Z,45.3
2018-07-14T06:02:27.410Z,45.4
2018-07-14T06:03:28.450Z,45.4
2018-07-14T06:04:27.438Z,45.3
2018-07-14T06:05:29.942Z,45.3
2018-07-14T06:06:26.367Z,45.4
2018-07-14T06:07:32.554Z,45.4
2018-07-14T06:08:39.740Z,45.4
2018-07-14T06:09:41.917Z,45.4
2018-07-14T06:10:42.909Z,45.4
2018-07-14T06:11:40.748Z,45.4
2018-07-14T06:12:40.338Z,45.3
2018-07-14T06:13:53.857Z,45.4
2018-07-14T06:14:48.757Z,45.4
2018-07-14T06:15:54.716Z,45.4
2018-07-14T06:17:01.701Z,45.4
2018-07-14T06:18:02.360Z,45.3
2018-07-14T06:19:01.749Z,45.4
2018-07-14T06:20:02.672Z,45.4
2018-07-14T06:21:02.092Z,45.4
2018-07-14T06:22:03.227Z,45.4
2018-07-14T06:23:04.377Z,45.4
2018-07-14T06:23:59.735Z,45.4
2018-07-14T06:25:00.960Z,45.4
2018-07-14T06:26:19.778Z,45.4
2018-07-14T06:27:12.989Z,45.4
2018-07-14T06:28:13.769Z,45.4
2018-07-14T06:29:14.613Z,45.5
2018-07-14T06:30:17.035Z,45.5
2018-07-14T06:31:16.958Z,45.5
2018-07-14T06:32:12.393Z,45.5
2018-07-14T06:33:14.330Z,45.4
2018-07-14T06:34:13.158Z,45.5
2018-07-14T06:35:16.772Z,45.5
2018-07-14T06:36:28.851Z,45.5
2018-07-14T06:37:31.960Z,45.5
2018-07-14T06:38:46.020Z,45.5
2018-07-14T06:39:48.009Z,45.6
2018-07-14T06:40:49.543Z,45.5
2018-07-14T06:41:44.780Z,45.5
2018-07-14T06:42:47.960Z,45.5
2018-07-14T06:43:44.419Z,45.5
2018-07-14T06:44:44.925Z,45.5
2018-07-14T06:45:50.306Z,45.6
2018-07-14T06:46:58.773Z,45.6
2018-07-14T06:48:00.441Z,45.6
2018-07-14T06:49:01.160Z,45.6
2018-07-14T06:50:19.980Z,45.6
2018-07-14T06:51:17.078Z,45.6
2018-07-14T06:52:19.264Z,45.6
2018-07-14T06:53:19.234Z,45.6
2018-07-14T06:54:17.044Z,45.6
2018-07-14T06:55:16.186Z,45.6
2018-07-14T06:56:19.004Z,45.6
2018-07-14T06:57:17.954Z,45.6
2018-07-14T06:58:17.773Z,45.6
2018-07-14T06:59:17.216Z,45.6
2018-07-14T07:00:25.125Z,45.6
2018-07-14T07:01:42.030Z,45.8
2018-07-14T07:02:38.243Z,46.1
2018-07-14T07:03:35.610Z,46.3
2018-07-14T07:04:54.634Z,46.4
2018-07-14T07:05:50.917Z,46.8
2018-07-14T07:06:53.085Z,47.1
2018-07-14T07:07:48.477Z,47.1
2018-07-14T07:08:48.363Z,47.1
2018-07-14T07:09:50.723Z,47.2
2018-07-14T07:10:51.634Z,47.2
2018-07-14T07:11:50.397Z,47.2
2018-07-14T07:12:50.592Z,47.2
2018-07-14T07:13:58.685Z,47.2
2018-07-14T07:15:01.737Z,47.2
2018-07-14T07:15:57.095Z,47.2
2018-07-14T07:16:58.342Z,47.2
2018-07-14T07:17:53.030Z,47.2
2018-07-14T07:19:11.787Z,47.2
2018-07-14T07:20:06.538Z,47.1
2018-07-14T07:21:03.988Z,47.1
2018-07-14T07:22:08.328Z,47.1
2018-07-14T07:23:05.920Z,47.1
2018-07-14T07:24:03.591Z,47.1
2018-07-14T07:25:07.264Z,47.1
2018-07-14T07:26:08.330Z,47.1
2018-07-14T07:27:14.008Z,47.1
2018-07-14T07:28:09.651Z,47.1
2018-07-14T07:29:08.449Z,47.1
2018-07-14T07:30:10.189Z,47
2018-07-14T07:31:26.376Z,47
2018-07-14T07:32:25.927Z,47.1
2018-07-14T07:33:23.784Z,46.7
2018-07-14T07:34:36.323Z,47.1
2018-07-14T07:35:37.462Z,47.1
2018-07-14T07:36:35.927Z,47.1
2018-07-14T07:37:38.159Z,47
2018-07-14T07:38:38.107Z,47
2018-07-14T07:39:33.211Z,47
2018-07-14T07:40:32.141Z,47
2018-07-14T07:41:30.260Z,47
2018-07-14T07:42:29.504Z,47
2018-07-14T07:43:39.670Z,47
2018-07-14T07:44:37.613Z,47
2018-07-14T07:45:38.599Z,46.9
2018-07-14T07:46:34.773Z,47
2018-07-14T07:47:33.861Z,46.9
2018-07-14T07:48:39.227Z,46.9
2018-07-14T07:49:36.684Z,46.9
2018-07-14T07:50:35.555Z,46.9
2018-07-14T07:51:37.894Z,46.8
2018-07-14T07:52:33.238Z,46.9
2018-07-14T07:53:32.030Z,46.9
2018-07-14T07:54:35.251Z,46.9
2018-07-14T07:55:34.965Z,46.8
2018-07-14T07:56:33.829Z,46.8
2018-07-14T07:57:34.517Z,46.8
2018-07-14T07:58:29.609Z,46.8
2018-07-14T07:59:26.763Z,46.7
2018-07-14T08:00:31.170Z,46.4
2018-07-14T08:01:32.574Z,46.5
2018-07-14T08:02:30.287Z,46.6
2018-07-14T08:03:46.372Z,46.4
2018-07-14T08:04:43.095Z,46.8
2018-07-14T08:05:40.990Z,46.7
2018-07-14T08:06:38.403Z,46.7
2018-07-14T08:07:37.151Z,46.5
2018-07-14T08:08:37.029Z,46.6
2018-07-14T08:09:35.170Z,46.5
2018-07-14T08:10:33.717Z,46.5
2018-07-14T08:11:34.791Z,46.5
2018-07-14T08:12:38.091Z,46.6
2018-07-14T08:13:34.884Z,46.7
2018-07-14T08:14:39.714Z,46.6
2018-07-14T08:15:45.943Z,46.6
2018-07-14T08:16:47.609Z,46.6
2018-07-14T08:17:59.223Z,46.6
2018-07-14T08:18:59.455Z,46.5
2018-07-14T08:19:59.826Z,46.6
2018-07-14T08:20:55.906Z,46.4
2018-07-14T08:21:53.790Z,46.4
2018-07-14T08:22:58.041Z,46.4
2018-07-14T08:23:55.964Z,46.4
2018-07-14T08:24:53.322Z,46.3
2018-07-14T08:25:56.963Z,46.4
2018-07-14T08:26:52.055Z,46.1
2018-07-14T08:27:52.745Z,45.9
2018-07-14T08:28:52.228Z,46.3
2018-07-14T08:29:53.177Z,46.4
2018-07-14T08:30:54.203Z,46.4
2018-07-14T08:32:09.808Z,46.4
2018-07-14T08:33:04.604Z,46.6
2018-07-14T08:33:59.910Z,46.3
2018-07-14T08:34:59.693Z,46.3
2018-07-14T08:36:06.954Z,46.3
2018-07-14T08:37:15.291Z,46.2
2018-07-14T08:38:18.445Z,46.2
2018-07-14T08:39:18.519Z,46.9
2018-07-14T08:40:17.271Z,46.2
2018-07-14T08:41:14.988Z,46.1
2018-07-14T08:42:16.653Z,46.6
2018-07-14T08:43:20.211Z,46.3
2018-07-14T08:44:19.112Z,46.7
2018-07-14T08:45:14.945Z,46.1
2018-07-14T08:46:18.713Z,46.1
2018-07-14T08:47:36.705Z,46.1
2018-07-14T08:48:33.329Z,46
2018-07-14T08:49:32.075Z,46
2018-07-14T08:50:29.440Z,46
2018-07-14T08:51:27.375Z,46
2018-07-14T08:52:28.358Z,45.8
2018-07-14T08:53:30.420Z,45.4
2018-07-14T08:54:27.772Z,45.4
2018-07-14T08:55:26.969Z,45.9
2018-07-14T08:56:27.956Z,45.9
2018-07-14T08:57:27.017Z,45.9
2018-07-14T08:58:28.254Z,45.2
2018-07-14T08:59:38.302Z,45
2018-07-14T09:00:35.110Z,45.9
2018-07-14T09:01:38.805Z,46.3
2018-07-14T09:02:40.334Z,45.4
2018-07-14T09:03:35.383Z,45.4
2018-07-14T09:04:33.445Z,45.3
2018-07-14T09:05:31.041Z,45.4
2018-07-14T09:06:28.892Z,45.9
2018-07-14T09:07:34.546Z,45.4
2018-07-14T09:08:35.544Z,45.5
2018-07-14T09:09:33.412Z,46.2
2018-07-14T09:10:30.983Z,46.3
2018-07-14T09:11:27.502Z,46.1
2018-07-14T09:12:32.057Z,45.9
2018-07-14T09:13:27.330Z,45.8
2018-07-14T09:14:28.689Z,45.7
2018-07-14T09:15:40.413Z,45.6
2018-07-14T09:16:37.059Z,45.5
2018-07-14T09:17:32.457Z,45.5
2018-07-14T09:18:34.906Z,45.3
2018-07-14T09:19:29.725Z,45.4
2018-07-14T09:20:31.417Z,45.4
2018-07-14T09:21:33.770Z,45.2
2018-07-14T09:22:32.892Z,45.1
2018-07-14T09:23:31.511Z,45
2018-07-14T09:24:36.044Z,44.9
2018-07-14T09:25:37.782Z,44.8
2018-07-14T09:26:51.088Z,44.8
2018-07-14T09:27:48.181Z,44.7
2018-07-14T09:28:47.094Z,44.6
2018-07-14T09:29:47.778Z,44.6
2018-07-14T09:30:49.176Z,44.5
2018-07-14T09:31:49.823Z,44.5
2018-07-14T09:32:48.295Z,44.4
2018-07-14T09:33:56.140Z,44.4
2018-07-14T09:34:58.948Z,44.3
2018-07-14T09:35:54.738Z,44.5
2018-07-14T09:36:57.925Z,44.5
2018-07-14T09:37:55.907Z,44.5
2018-07-14T09:39:08.107Z,44.5
2018-07-14T09:40:00.301Z,44.5
2018-07-14T09:40:58.082Z,44.7
2018-07-14T09:42:00.318Z,44.7
2018-07-14T09:42:59.129Z,44.7
2018-07-14T09:44:00.398Z,44.6
2018-07-14T09:44:56.730Z,44.5
2018-07-14T09:45:53.860Z,44.4
2018-07-14T09:46:58.263Z,44.4
2018-07-14T09:48:11.242Z,44.4
2018-07-14T09:49:09.228Z,44.3
2018-07-14T09:50:07.976Z,44.4
2018-07-14T09:51:06.220Z,44.3
2018-07-14T09:52:01.433Z,44.4
2018-07-14T09:53:04.987Z,44.7
2018-07-14T09:54:03.888Z,44.8
2018-07-14T09:54:59.371Z,44.8
2018-07-14T09:56:03.153Z,44.7
2018-07-14T09:57:03.513Z,44.7
2018-07-14T09:58:17.037Z,44.7
2018-07-14T09:59:10.993Z,44.6
2018-07-14T10:00:11.354Z,44.5
2018-07-14T10:01:12.451Z,44.4
2018-07-14T10:02:12.308Z,44.4
2018-07-14T10:03:08.624Z,44.3
2018-07-14T10:04:13.016Z,44.3
2018-07-14T10:05:09.894Z,44.3
2018-07-14T10:06:10.239Z,44.2
2018-07-14T10:07:08.832Z,44.2
2018-07-14T10:08:06.888Z,44.1
2018-07-14T10:09:04.389Z,44.1
2018-07-14T10:10:04.615Z,44.1
2018-07-14T10:11:00.190Z,44.1
2018-07-14T10:12:00.836Z,44
2018-07-14T10:12:58.100Z,44
2018-07-14T10:14:12.829Z,44.5
2018-07-14T10:15:16.612Z,44.3
2018-07-14T10:16:16.277Z,44.8
2018-07-14T10:17:18.754Z,45
2018-07-14T10:18:20.508Z,45
2018-07-14T10:19:23.309Z,45.1
2018-07-14T10:20:19.935Z,45.1
2018-07-14T10:21:18.739Z,44.9
2018-07-14T10:22:19.811Z,44.9
2018-07-14T10:23:18.510Z,44.6
2018-07-14T10:24:14.857Z,44
2018-07-14T10:25:15.406Z,43.6
2018-07-14T10:26:29.649Z,44
2018-07-14T10:27:25.872Z,46
2018-07-14T10:28:25.622Z,44.9
2018-07-14T10:29:24.429Z,45.3
2018-07-14T10:30:25.061Z,46.1
2018-07-14T10:31:23.153Z,46.1
2018-07-14T10:32:21.772Z,47
2018-07-14T10:33:22.360Z,47.2
2018-07-14T10:34:20.982Z,48.2
2018-07-14T10:35:18.535Z,47.4
2018-07-14T10:36:21.631Z,46.9
2018-07-14T10:37:21.902Z,46.4
2018-07-14T10:38:33.239Z,47.2
2018-07-14T10:39:28.293Z,48.1
2018-07-14T10:40:28.451Z,47.7
2018-07-14T10:41:30.478Z,47.4
2018-07-14T10:42:32.730Z,49
2018-07-14T10:43:35.735Z,48.3
2018-07-14T10:44:35.524Z,47.6
2018-07-14T10:45:33.514Z,46.5
2018-07-14T10:46:36.777Z,46.8
2018-07-14T10:47:38.655Z,47.6
2018-07-14T10:48:38.373Z,47.7
2018-07-14T10:49:51.811Z,46.7
2018-07-14T10:50:47.566Z,46.8
2018-07-14T10:51:45.210Z,47.2
2018-07-14T10:52:46.487Z,47.7
2018-07-14T10:53:43.818Z,47.6
2018-07-14T10:54:44.021Z,47.6
2018-07-14T10:55:44.125Z,47.9
2018-07-14T10:56:46.126Z,48.4
2018-07-14T10:57:44.826Z,46.8
2018-07-14T10:58:45.588Z,46.9
2018-07-14T10:59:47.452Z,46.9
2018-07-14T11:00:48.720Z,46.9
2018-07-14T11:01:43.226Z,46.7
2018-07-14T11:02:55.248Z,46.6
2018-07-14T11:04:02.840Z,46.9
2018-07-14T11:04:57.509Z,46.5
2018-07-14T11:06:02.129Z,46.6
2018-07-14T11:07:01.100Z,46.5
2018-07-14T11:08:06.370Z,46.4
2018-07-14T11:09:14.665Z,46.4
2018-07-14T11:10:11.303Z,46.3
2018-07-14T11:11:15.600Z,46.3
2018-07-14T11:12:14.388Z,46.4
2018-07-14T11:13:28.009Z,46.3
2018-07-14T11:14:22.884Z,46.4
2018-07-14T11:15:21.363Z,46.4
2018-07-14T11:16:24.419Z,46.3
2018-07-14T11:17:22.988Z,46.2
2018-07-14T11:18:21.983Z,46.9
2018-07-14T11:19:29.000Z,45.5
2018-07-14T11:20:27.038Z,45.2
2018-07-14T11:21:31.291Z,45.7
2018-07-14T11:22:41.849Z,44.9
2018-07-14T11:23:46.615Z,44.6
2018-07-14T11:24:55.956Z,44.6
2018-07-14T11:25:53.798Z,44.9
2018-07-14T11:26:50.016Z,45.9
2018-07-14T11:27:54.713Z,45
2018-07-14T11:28:53.422Z,44.7
2018-07-14T11:29:52.265Z,45.8
2018-07-14T11:30:47.706Z,44.7
2018-07-14T11:31:46.582Z,44.2
2018-07-14T11:32:46.917Z,44.4
2018-07-14T11:33:45.139Z,44.3
2018-07-14T11:34:42.784Z,44.5
2018-07-14T11:35:37.953Z,45.4
2018-07-14T11:36:35.963Z,45.7
2018-07-14T11:37:47.634Z,46.6
2018-07-14T11:38:43.418Z,46.5
2018-07-14T11:39:46.976Z,46.2
2018-07-14T11:40:49.470Z,46.3
2018-07-14T11:41:50.484Z,46.4
2018-07-14T11:42:45.715Z,46.4
2018-07-14T11:43:45.738Z,45.6
2018-07-14T11:44:45.749Z,45.4
2018-07-14T11:45:46.824Z,45.4
2018-07-14T11:46:44.746Z,45.4
2018-07-14T11:47:44.892Z,45.3
2018-07-14T11:49:04.999Z,45.1
2018-07-14T11:49:59.977Z,45.4
2018-07-14T11:50:55.592Z,46.2
2018-07-14T11:51:53.074Z,45.1
2018-07-14T11:52:56.452Z,44.9
2018-07-14T11:54:00.669Z,44.4
2018-07-14T11:55:03.218Z,45
2018-07-14T11:56:02.316Z,45
2018-07-14T11:57:02.325Z,44.9
2018-07-14T11:58:00.784Z,44.8
2018-07-14T11:59:11.086Z,44.3
2018-07-14T12:00:14.907Z,44.6
2018-07-14T12:01:18.047Z,44.6
2018-07-14T12:02:17.031Z,44.6
2018-07-14T12:03:18.811Z,44.6
2018-07-14T12:04:17.262Z,44.2
2018-07-14T12:05:13.910Z,44.3
2018-07-14T12:06:13.751Z,43.9
2018-07-14T12:07:14.332Z,43.7
2018-07-14T12:08:10.719Z,44.1
2018-07-14T12:09:14.550Z,43.8
2018-07-14T12:10:27.744Z,43.4
2018-07-14T12:11:23.642Z,43.4
2018-07-14T12:12:21.620Z,43.5
2018-07-14T12:13:31.871Z,43.6
2018-07-14T12:14:36.064Z,43.8
2018-07-14T12:15:40.145Z,43.7
2018-07-14T12:16:35.694Z,42.5
2018-07-14T12:17:40.158Z,43
2018-07-14T12:18:37.646Z,43.4
2018-07-14T12:19:41.782Z,43.5
2018-07-14T12:20:55.665Z,43.5
2018-07-14T12:21:51.764Z,42.9
2018-07-14T12:22:52.097Z,43.1
2018-07-14T12:23:50.861Z,42.7
2018-07-14T12:24:53.380Z,42.8
2018-07-14T12:25:58.205Z,42.9
2018-07-14T12:26:53.500Z,43.1
2018-07-14T12:27:54.797Z,43.2
2018-07-14T12:28:55.256Z,43.1
2018-07-14T12:29:58.377Z,43.1
2018-07-14T12:31:04.265Z,43
2018-07-14T12:32:05.251Z,42.8
2018-07-14T12:33:17.013Z,42.8
2018-07-14T12:34:16.799Z,42.5
2018-07-14T12:35:17.884Z,42.6
2018-07-14T12:36:18.858Z,42.5
2018-07-14T12:37:26.678Z,42.4
2018-07-14T12:38:29.687Z,42.5
2018-07-14T12:39:27.634Z,42.6
2018-07-14T12:40:28.250Z,42.7
2018-07-14T12:41:28.249Z,42.6
2018-07-14T12:42:29.848Z,41.6
2018-07-14T12:43:27.522Z,41.1
2018-07-14T12:44:27.602Z,41.4
2018-07-14T12:45:22.442Z,41.7
2018-07-14T12:46:35.557Z,41.6
2018-07-14T12:47:32.254Z,41.9
2018-07-14T12:48:36.657Z,41.8
2018-07-14T12:49:32.700Z,41.8
2018-07-14T12:50:33.200Z,41.9
2018-07-14T12:51:28.558Z,41.8
2018-07-14T12:52:35.063Z,41.5
2018-07-14T12:53:35.171Z,41.6
2018-07-14T12:54:33.550Z,41.8
2018-07-14T12:55:31.081Z,41.8
2018-07-14T12:56:31.086Z,41.7
2018-07-14T12:57:29.104Z,41.8
2018-07-14T12:58:26.424Z,41.9
2018-07-14T12:59:27.303Z,42
2018-07-14T13:00:38.633Z,42
2018-07-14T13:01:37.335Z,41.9
2018-07-14T13:02:34.706Z,41.2
2018-07-14T13:03:34.435Z,41.2
2018-07-14T13:04:36.885Z,40.8
2018-07-14T13:05:36.938Z,40.8
2018-07-14T13:06:38.107Z,41.2
2018-07-14T13:07:33.014Z,41
2018-07-14T13:08:33.789Z,40.6
2018-07-14T13:09:41.316Z,40.9
2018-07-14T13:11:01.512Z,40.6
2018-07-14T13:11:55.904Z,40.7
2018-07-14T13:13:00.893Z,40.7
2018-07-14T13:13:55.768Z,40.9
2018-07-14T13:14:55.365Z,40.9
2018-07-14T13:16:03.807Z,40.8
2018-07-14T13:17:00.592Z,41.1
2018-07-14T13:18:02.644Z,41.2
2018-07-14T13:19:05.934Z,41.1
2018-07-14T13:20:04.472Z,40.9
2018-07-14T13:21:04.012Z,40.9
2018-07-14T13:22:18.588Z,41.1
2018-07-14T13:23:15.637Z,40.7
2018-07-14T13:24:14.826Z,40.4
2018-07-14T13:25:12.541Z,39.7
2018-07-14T13:26:17.080Z,38.8
2018-07-14T13:27:18.172Z,39.4
2018-07-14T13:28:20.058Z,39.7
2018-07-14T13:29:33.929Z,39.9
2018-07-14T13:30:34.814Z,39.7
2018-07-14T13:31:31.042Z,39
2018-07-14T13:32:28.331Z,39.3
2018-07-14T13:33:37.359Z,39.5
2018-07-14T13:35:10.983Z,39.7
2018-07-14T13:36:10.740Z,39.7
2018-07-14T13:37:32.820Z,39.7
2018-07-14T13:38:26.732Z,39.7
2018-07-14T13:39:29.126Z,39.9